createdAt,value
2023-01-10T00:04:35.447Z,5.84
2023-01-10T00:09:39.710Z,5.78
2023-01-10T00:14:42.601Z,5.93
2023-01-10T00:19:45.478Z,5.88
2023-01-10T00:24:49.813Z,5.87
2023-01-10T00:29:53.913Z,5.99
2023-01-10T00:34:56.781Z,5.94
2023-01-10T00:40:01.081Z,5.93
2023-01-10T00:45:04.160Z,6.04
2023-01-10T00:50:08.548Z,5.93
2023-01-10T00:55:12.796Z,6.02
2023-01-10T01:00:16.307Z,5.90
2023-01-10T01:05:20.141Z,5.96
2023-01-10T01:10:27.542Z,6.08
2023-01-10T01:15:30.564Z,5.97
2023-01-10T01:20:34.123Z,6.04
2023-01-10T01:25:38.572Z,5.96
2023-01-10T01:30:41.445Z,6.04
2023-01-10T01:35:45.286Z,5.90
2023-01-10T01:40:49.569Z,5.94
2023-01-10T01:45:53.599Z,5.91
2023-01-10T01:51:05.724Z,5.90
2023-01-10T01:56:16.037Z,5.97
2023-01-10T02:01:19.325Z,5.86
2023-01-10T02:06:24.854Z,5.88
2023-01-10T02:11:31.236Z,5.85
2023-01-10T02:16:34.139Z,5.76
2023-01-10T02:22:25.564Z,5.80
2023-01-10T02:27:42.299Z,5.83
2023-01-10T02:33:04.066Z,5.79
2023-01-10T02:38:18.251Z,5.74
2023-01-10T02:43:25.225Z,5.62
2023-01-10T02:48:29.746Z,5.57
2023-01-10T02:53:37.983Z,5.50
2023-01-10T02:58:59.860Z,5.56
2023-01-10T03:04:10.148Z,5.58
2023-01-10T03:09:21.926Z,5.55
2023-01-10T03:14:28.230Z,5.57
2023-01-10T03:19:36.165Z,5.46
2023-01-10T03:24:42.453Z,5.53
2023-01-10T03:29:50.477Z,5.53
2023-01-10T03:34:55.330Z,5.58
2023-01-10T03:40:06.263Z,5.75
2023-01-10T03:45:13.526Z,5.54
2023-01-10T03:50:21.106Z,5.56
2023-01-10T03:55:27.773Z,5.58
2023-01-10T04:00:30.972Z,5.63
2023-01-10T04:05:35.226Z,5.59
2023-01-10T04:10:38.165Z,5.63
2023-01-10T04:15:41.148Z,5.52
2023-01-10T04:20:45.514Z,5.50
2023-01-10T04:25:48.594Z,5.51
2023-01-10T04:30:51.518Z,5.56
2023-01-10T04:35:55.805Z,5.47
2023-01-10T04:40:59.007Z,5.60
2023-01-10T04:46:02.041Z,5.56
2023-01-10T04:51:06.796Z,5.59
2023-01-10T04:56:15.591Z,5.50
2023-01-10T05:01:20.954Z,5.47
2023-01-10T05:06:26.076Z,5.58
2023-01-10T05:11:28.966Z,5.60
2023-01-10T05:16:31.954Z,5.55
2023-01-10T05:21:36.248Z,5.52
2023-01-10T05:26:39.177Z,5.48
2023-01-10T05:31:42.463Z,5.58
2023-01-10T05:36:46.718Z,5.53
2023-01-10T05:41:49.649Z,5.58
2023-01-10T05:46:52.635Z,5.60
2023-01-10T05:51:56.927Z,5.64
2023-01-10T05:56:59.897Z,5.60
2023-01-10T06:02:02.919Z,5.71
2023-01-10T06:07:07.228Z,5.69
2023-01-10T06:12:10.080Z,5.70
2023-01-10T06:17:13.115Z,5.55
2023-01-10T06:22:17.357Z,5.61
2023-01-10T06:27:20.256Z,5.56
2023-01-10T06:32:23.120Z,5.55
2023-01-10T06:37:27.412Z,5.50
2023-01-10T06:42:30.299Z,5.55
2023-01-10T06:47:33.170Z,5.50
2023-01-10T06:52:38.052Z,5.39
2023-01-10T06:57:40.919Z,5.39
2023-01-10T07:02:43.844Z,5.32
2023-01-10T07:07:48.138Z,5.34
2023-01-10T07:12:51.057Z,5.43
2023-01-10T07:17:54.032Z,5.44
2023-01-10T07:23:00.069Z,5.51
2023-01-10T07:28:02.987Z,5.39
2023-01-10T07:33:06.684Z,5.41
2023-01-10T07:38:10.939Z,5.48
2023-01-10T07:43:13.923Z,5.48
2023-01-10T07:48:16.813Z,5.60
2023-01-10T07:53:21.073Z,5.39
2023-01-10T07:58:23.987Z,5.37
2023-01-10T08:03:27.649Z,5.36
2023-01-10T08:08:32.234Z,5.48
2023-01-10T08:13:35.282Z,5.49
2023-01-10T08:18:42.382Z,5.40
2023-01-10T08:23:46.674Z,5.46
2023-01-10T08:28:49.589Z,5.36
2023-01-10T08:33:52.626Z,5.27
2023-01-10T08:38:57.447Z,5.48
2023-01-10T08:44:00.829Z,5.58
2023-01-10T08:49:03.855Z,5.68
2023-01-10T08:54:08.437Z,5.71
2023-01-10T08:59:11.545Z,5.62
2023-01-10T09:04:14.394Z,5.82
2023-01-10T09:09:18.930Z,5.91
2023-01-10T09:14:21.990Z,6.03
2023-01-10T09:19:24.980Z,6.19
2023-01-10T09:24:29.225Z,6.06
2023-01-10T09:29:32.201Z,6.23
2023-01-10T09:34:35.136Z,5.95
2023-01-10T09:39:39.396Z,6.00
2023-01-10T09:44:51.436Z,5.89
2023-01-10T09:50:07.624Z,6.07
2023-01-10T09:55:21.644Z,5.95
2023-01-10T10:00:30.993Z,6.10
2023-01-10T10:05:33.933Z,6.16
2023-01-10T10:10:41.196Z,6.17
2023-01-10T10:15:52.080Z,6.26
2023-01-10T10:21:02.966Z,6.42
2023-01-10T10:26:17.932Z,6.33
2023-01-10T10:31:32.607Z,6.39
2023-01-10T10:36:43.123Z,6.48
2023-01-10T10:41:52.499Z,6.46
2023-01-10T10:46:59.007Z,6.66
2023-01-10T10:52:05.169Z,7.06
2023-01-10T10:57:11.263Z,6.85
2023-01-10T11:02:23.774Z,6.84
2023-01-10T11:07:29.727Z,6.69
2023-01-10T11:12:36.382Z,6.68
2023-01-10T11:17:41.094Z,6.81
2023-01-10T11:22:49.645Z,6.80
2023-01-10T11:27:56.898Z,6.90
2023-01-10T11:33:03.156Z,7.08
2023-01-10T11:38:08.682Z,6.82
2023-01-10T11:43:27.115Z,6.85
2023-01-10T11:49:04.533Z,7.21
2023-01-10T11:54:08.632Z,7.09
2023-01-10T11:59:16.514Z,7.13
2023-01-10T12:04:21.670Z,7.15
2023-01-10T12:09:56.256Z,7.14
2023-01-10T12:15:22.029Z,7.12
2023-01-10T12:20:29.502Z,7.21
2023-01-10T12:25:35.770Z,7.31
2023-01-10T12:30:43.590Z,7.20
2023-01-10T12:35:53.209Z,7.10
2023-01-10T12:41:02.103Z,7.16
2023-01-10T12:46:26.370Z,7.43
2023-01-10T12:51:36.847Z,7.31
2023-01-10T12:56:40.974Z,7.27
2023-01-10T13:01:48.722Z,7.34
2023-01-10T13:06:55.327Z,7.04
2023-01-10T13:12:03.872Z,7.10
2023-01-10T13:17:17.626Z,7.01
2023-01-10T13:22:24.093Z,7.04
2023-01-10T13:27:30.992Z,7.12
2023-01-10T13:32:36.295Z,7.14
2023-01-10T13:37:43.166Z,7.20
2023-01-10T13:43:03.267Z,7.15
2023-01-10T13:48:27.704Z,7.02
2023-01-10T13:53:45.505Z,7.08
2023-01-10T13:59:05.934Z,7.02
2023-01-10T14:04:18.294Z,7.20
2023-01-10T14:09:40.822Z,7.03
2023-01-10T14:14:50.652Z,6.97
2023-01-10T14:20:16.558Z,6.84
2023-01-10T14:25:22.593Z,6.92
2023-01-10T14:30:30.494Z,6.75
2023-01-10T14:35:38.231Z,6.80
2023-01-10T14:40:46.208Z,6.79
2023-01-10T14:45:53.298Z,6.76
2023-01-10T14:51:17.013Z,6.76
2023-01-10T14:56:24.185Z,6.60
2023-01-10T15:01:30.940Z,6.49
2023-01-10T15:06:52.448Z,6.42
2023-01-10T15:12:00.705Z,6.35
2023-01-10T15:17:06.493Z,6.24
2023-01-10T15:22:19.510Z,6.22
2023-01-10T15:27:23.859Z,6.25
2023-01-10T15:32:30.600Z,6.33
2023-01-10T15:37:39.254Z,6.26
2023-01-10T15:42:43.550Z,6.34
2023-01-10T15:47:55.128Z,6.23
2023-01-10T15:53:00.825Z,6.24
2023-01-10T15:58:06.336Z,6.06
2023-01-10T16:03:19.595Z,6.12
2023-01-10T16:08:26.002Z,6.05
2023-01-10T16:13:31.712Z,5.84
2023-01-10T16:18:35.247Z,5.93
2023-01-10T16:23:38.568Z,6.16
2023-01-10T16:28:42.822Z,6.10
2023-01-10T16:33:46.462Z,6.04
2023-01-10T16:38:50.150Z,6.02
2023-01-10T16:43:54.433Z,6.03
2023-01-10T16:48:57.425Z,5.80
2023-01-10T16:54:00.767Z,5.79
2023-01-10T16:59:06.467Z,5.73
2023-01-10T17:04:12.735Z,5.54
2023-01-10T17:09:22.487Z,5.63
2023-01-10T17:14:26.848Z,5.64
2023-01-10T17:19:29.923Z,5.57
2023-01-10T17:24:32.819Z,5.62
2023-01-10T17:29:37.330Z,5.49
2023-01-10T17:34:40.230Z,5.58
2023-01-10T17:39:43.124Z,5.56
2023-01-10T17:44:47.421Z,5.68
2023-01-10T17:49:50.333Z,5.68
2023-01-10T17:54:53.204Z,5.69
2023-01-10T17:59:57.522Z,5.59
2023-01-10T18:05:00.659Z,5.71
2023-01-10T18:10:03.575Z,5.44
2023-01-10T18:15:09.438Z,5.30
2023-01-10T18:20:13.220Z,5.35
2023-01-10T18:25:17.627Z,5.28
2023-01-10T18:30:22.672Z,5.29
2023-01-10T18:35:26.803Z,5.25
2023-01-10T18:40:29.737Z,5.07
2023-01-10T18:45:34.021Z,4.94
2023-01-10T18:50:36.972Z,4.78
2023-01-10T18:55:39.920Z,4.71
2023-01-10T19:00:44.554Z,4.70
2023-01-10T19:05:47.912Z,4.68
2023-01-10T19:11:11.905Z,4.65
2023-01-10T19:16:16.737Z,4.62
2023-01-10T19:21:20.204Z,4.55
2023-01-10T19:26:24.183Z,4.63
2023-01-10T19:31:30.250Z,4.78
2023-01-10T19:36:34.687Z,4.68
2023-01-10T19:41:39.347Z,4.14
2023-01-10T19:46:45.412Z,4.03
2023-01-10T19:51:51.247Z,4.22
2023-01-10T19:56:55.171Z,4.25
2023-01-10T20:02:00.872Z,4.38
2023-01-10T20:07:04.199Z,4.12
2023-01-10T20:12:07.530Z,4.04
2023-01-10T20:17:11.776Z,4.17
2023-01-10T20:22:14.642Z,3.96
2023-01-10T20:27:17.538Z,4.04
2023-01-10T20:32:23.192Z,3.48
2023-01-10T20:37:26.089Z,3.33
2023-01-10T20:42:29.066Z,3.22
2023-01-10T20:47:33.523Z,3.19
2023-01-10T20:52:36.428Z,3.29
2023-01-10T20:57:39.334Z,3.30
2023-01-10T21:02:43.610Z,3.03
2023-01-10T21:07:46.876Z,3.09
2023-01-10T21:12:49.992Z,2.69
2023-01-10T21:17:54.286Z,2.78
2023-01-10T21:22:59.863Z,2.62
2023-01-10T21:28:03.091Z,2.70
2023-01-10T21:33:08.419Z,2.32
2023-01-10T21:38:11.311Z,2.28
2023-01-10T21:43:14.281Z,2.35
2023-01-10T21:48:18.526Z,2.34
2023-01-10T21:53:22.757Z,2.12
2023-01-10T21:58:25.678Z,2.11
2023-01-10T22:03:31.254Z,2.07
2023-01-10T22:08:34.173Z,1.93
2023-01-10T22:13:37.294Z,1.97
2023-01-10T22:18:41.512Z,2.03
2023-01-10T22:23:45.268Z,1.66
2023-01-10T22:28:48.178Z,1.92
2023-01-10T22:33:52.481Z,1.97
2023-01-10T22:38:55.453Z,1.91
2023-01-10T22:43:58.392Z,1.99
2023-01-10T22:49:02.621Z,2.10
2023-01-10T22:54:05.836Z,2.30
2023-01-10T22:59:08.702Z,1.87
2023-01-10T23:04:13.040Z,1.80
2023-01-10T23:09:16.059Z,1.78
2023-01-10T23:14:18.972Z,1.72
2023-01-10T23:19:23.217Z,1.34
2023-01-10T23:24:26.192Z,1.55
2023-01-10T23:29:29.109Z,1.46
2023-01-10T23:34:33.355Z,1.34
2023-01-10T23:39:36.257Z,1.35
2023-01-10T23:44:39.188Z,1.15
2023-01-10T23:49:43.454Z,1.20
2023-01-10T23:54:46.387Z,1.23
2023-01-10T23:59:49.246Z,1.38
